Time;durP1;ratioP1;P1;durP2;ratioP2;P2;SDS_P1;SDS_P2;PMS_P1;PMS_P2;Temp;Humidity;BMP_temperature;BMP_pressure;BME280_temperature;BME280_humidity;BME280_pressure;Samples;Min_cycle;Max_cycle;Signal;HPM_P1;HPM_P2
2021/12/30 00:00:36;;;;;;;27.85;13.50;;;;;;;2.71;100.00;97018.81;4925464;29;20053;-91
2021/12/30 00:03:02;;;;;;;24.27;12.65;;;;;;;2.64;100.00;97025.28;4927261;29;20071;-89
2021/12/30 00:05:28;;;;;;;25.77;12.93;;;;;;;2.63;100.00;97030.59;4932038;29;20043;-90
2021/12/30 00:07:54;;;;;;;18.67;11.23;;;;;;;2.58;100.00;97017.59;4927129;29;20050;-89
2021/12/30 00:10:20;;;;;;;19.60;10.68;;;;;;;2.57;100.00;97015.00;4943121;29;20174;-91
2021/12/30 00:12:47;;;;;;;23.20;12.27;;;;;;;2.67;100.00;97021.66;4936049;29;20043;-89
2021/12/30 00:15:12;;;;;;;18.40;10.80;;;;;;;2.75;100.00;97027.47;4927210;29;20563;-90
2021/12/30 00:17:38;;;;;;;20.90;10.80;;;;;;;2.69;100.00;97018.03;4912100;29;20067;-90
2021/12/30 00:20:05;;;;;;;21.10;11.18;;;;;;;2.56;100.00;97000.06;4928983;29;20047;-90
2021/12/30 00:22:32;;;;;;;23.02;10.82;;;;;;;2.77;100.00;97022.16;4942877;29;20184;-89
2021/12/30 00:24:57;;;;;;;19.75;10.07;;;;;;;2.62;100.00;97024.44;4927547;29;20043;-89
2021/12/30 00:27:23;;;;;;;21.35;10.10;;;;;;;2.64;100.00;97021.78;4916637;29;20046;-89
2021/12/30 00:29:48;;;;;;;20.92;11.13;;;;;;;2.61;100.00;97022.75;4922831;29;20428;-90
2021/12/30 00:32:14;;;;;;;20.50;10.48;;;;;;;2.38;100.00;97025.41;4937034;29;20046;-89
2021/12/30 00:34:40;;;;;;;26.05;11.55;;;;;;;2.35;100.00;97040.50;4919754;29;20468;-90
2021/12/30 00:37:05;;;;;;;22.45;12.18;;;;;;;2.37;100.00;97052.69;4934451;29;20027;-90
2021/12/30 00:39:31;;;;;;;24.48;12.55;;;;;;;2.37;100.00;97038.69;4941803;29;20074;-89
2021/12/30 00:41:57;;;;;;;31.58;16.30;;;;;;;2.37;100.00;97039.50;4921276;29;20051;-90
2021/12/30 00:44:22;;;;;;;34.05;17.55;;;;;;;2.47;100.00;97046.16;4914500;29;20056;-90
2021/12/30 00:46:48;;;;;;;33.63;16.58;;;;;;;2.58;100.00;97054.56;4924021;29;20046;-90
2021/12/30 00:49:14;;;;;;;30.58;14.95;;;;;;;2.49;100.00;97040.84;4909031;29;20054;-90
2021/12/30 00:51:40;;;;;;;26.63;14.57;;;;;;;2.55;100.00;97056.44;4925056;29;20072;-91
2021/12/30 00:54:06;;;;;;;28.88;13.07;;;;;;;2.61;100.00;97059.72;4944702;29;20063;-92
2021/12/30 00:56:31;;;;;;;27.70;14.40;;;;;;;2.71;100.00;97068.09;4923450;29;20039;-90
2021/12/30 00:58:57;;;;;;;24.27;12.88;;;;;;;2.62;100.00;97050.84;4946040;29;20103;-89
2021/12/30 01:01:24;;;;;;;27.25;13.55;;;;;;;2.61;100.00;97061.50;4927787;29;20099;-89
2021/12/30 01:03:53;;;;;;;23.83;11.18;;;;;;;2.47;100.00;97053.22;4931314;29;20066;-90
2021/12/30 01:06:19;;;;;;;19.52;9.65;;;;;;;2.34;100.00;97059.91;4938592;29;20038;-87
2021/12/30 01:08:44;;;;;;;16.80;8.77;;;;;;;2.40;100.00;97064.94;4939588;29;20499;-89
2021/12/30 01:11:11;;;;;;;19.80;8.60;;;;;;;2.17;100.00;97053.47;4923122;29;20039;-88
2021/12/30 01:13:40;;;;;;;16.10;8.95;;;;;;;2.37;100.00;97081.72;4923031;29;20045;-91
2021/12/30 01:16:16;;;;;;;16.85;8.80;;;;;;;2.41;100.00;97085.97;4953325;29;20062;-91
2021/12/30 01:19:00;;;;;;;13.77;7.25;;;;;;;2.36;100.00;97082.66;4949843;29;20047;-90
2021/12/30 01:21:28;;;;;;;21.85;8.88;;;;;;;2.28;100.00;97084.72;4952591;29;20027;-90
2021/12/30 01:23:55;;;;;;;16.55;7.90;;;;;;;2.21;100.00;97079.72;4930624;29;20043;-89
2021/12/30 01:26:21;;;;;;;13.77;7.55;;;;;;;2.22;100.00;97091.97;4918453;29;20123;-89
2021/12/30 01:28:49;;;;;;;11.68;7.25;;;;;;;2.24;100.00;97080.47;4918118;29;20066;-90
2021/12/30 01:31:15;;;;;;;12.63;6.65;;;;;;;2.31;100.00;97081.94;4921260;29;20039;-91
2021/12/30 01:33:43;;;;;;;15.73;8.13;;;;;;;2.36;100.00;97103.78;4933459;29;20485;-90
2021/12/30 01:36:09;;;;;;;15.52;8.60;;;;;;;2.26;100.00;97083.91;4916371;29;20168;-91
2021/12/30 01:38:35;;;;;;;14.70;8.40;;;;;;;2.45;100.00;97111.34;4930816;29;20090;-90
2021/12/30 01:41:04;;;;;;;16.67;8.45;;;;;;;2.19;100.00;97087.69;4932467;29;20062;-90
2021/12/30 01:43:32;;;;;;;17.80;9.43;;;;;;;2.28;100.00;97100.53;4921396;29;20047;-90
2021/12/30 01:45:58;;;;;;;17.77;8.30;;;;;;;2.34;100.00;97102.13;4916372;29;20044;-90
2021/12/30 01:48:24;;;;;;;15.32;7.68;;;;;;;2.30;100.00;97103.13;4913225;29;20147;-91
2021/12/30 01:50:50;;;;;;;15.15;7.72;;;;;;;2.36;100.00;97116.97;4936777;29;20035;-91
2021/12/30 01:53:16;;;;;;;17.30;7.95;;;;;;;2.27;100.00;97105.88;4913551;29;20071;-91
2021/12/30 01:55:43;;;;;;;21.50;8.98;;;;;;;2.38;100.00;97117.75;4927828;29;20148;-91
2021/12/30 01:58:10;;;;;;;15.45;7.72;;;;;;;2.26;100.00;97107.66;4929807;29;20042;-92
2021/12/30 02:00:38;;;;;;;16.20;7.88;;;;;;;2.27;100.00;97109.38;4933354;29;20102;-92
2021/12/30 02:03:14;;;;;;;15.52;7.90;;;;;;;2.40;100.00;97115.91;4912688;29;20062;-89
2021/12/30 02:05:41;;;;;;;13.18;7.30;;;;;;;2.23;100.00;97115.69;4939099;29;20514;-91
2021/12/30 02:08:08;;;;;;;17.83;7.88;;;;;;;2.19;100.00;97111.41;4925909;29;20130;-90
2021/12/30 02:10:35;;;;;;;16.70;7.85;;;;;;;2.25;100.00;97112.97;4941740;29;20039;-89
2021/12/30 02:13:01;;;;;;;15.35;8.30;;;;;;;2.21;100.00;97122.81;4926035;29;20062;-91
2021/12/30 02:16:04;;;;;;;21.30;10.02;;;;;;;2.30;100.00;97133.03;4922958;29;20110;-90
2021/12/30 02:18:30;;;;;;;;;;;;;;;2.36;100.00;97131.94;4913030;29;20039;-88
2021/12/30 02:20:58;;;;;;;16.30;8.32;;;;;;;2.31;100.00;97124.16;4929742;29;20310;-91
2021/12/30 02:23:33;;;;;;;18.15;8.90;;;;;;;2.30;100.00;97135.66;4922565;29;20131;-90
2021/12/30 02:26:03;;;;;;;33.30;14.23;;;;;;;2.29;100.00;97136.56;4940949;29;20488;-91
2021/12/30 02:28:31;;;;;;;37.28;17.02;;;;;;;2.24;100.00;97132.38;4929379;29;20035;-91
2021/12/30 02:30:59;;;;;;;22.73;11.75;;;;;;;2.34;100.00;97139.06;4929077;29;20027;-92
2021/12/30 02:33:25;;;;;;;19.75;10.00;;;;;;;2.21;100.00;97120.16;4936222;29;20047;-91
2021/12/30 02:35:51;;;;;;;17.15;9.65;;;;;;;2.27;100.00;97141.03;4935478;29;20094;-90
2021/12/30 02:38:18;;;;;;;16.63;9.18;;;;;;;2.33;100.00;97147.88;4931873;29;20035;-91
2021/12/30 02:40:46;;;;;;;17.50;10.20;;;;;;;2.25;100.00;97134.06;4941596;29;20045;-91
2021/12/30 02:43:15;;;;;;;14.30;7.38;;;;;;;2.35;100.00;97146.03;4927085;29;20043;-91
2021/12/30 02:45:41;;;;;;;15.05;7.93;;;;;;;2.37;100.00;97147.69;4921674;29;20035;-91
2021/12/30 02:48:12;;;;;;;17.73;9.68;;;;;;;2.37;100.00;97155.59;4922497;29;20036;-89
2021/12/30 02:50:38;;;;;;;16.65;10.02;;;;;;;2.40;100.00;97149.38;4918619;29;20043;-90
2021/12/30 02:53:03;;;;;;;15.27;8.25;;;;;;;2.38;100.00;97145.91;4927693;29;20058;-89
2021/12/30 02:55:29;;;;;;;18.17;10.23;;;;;;;2.37;100.00;97139.78;4910838;29;20424;-90
2021/12/30 02:57:54;;;;;;;21.83;12.05;;;;;;;2.42;100.00;97158.97;4923326;29;20063;-92
2021/12/30 03:00:20;;;;;;;17.88;11.10;;;;;;;2.36;100.00;97159.19;4917015;29;20040;-91
2021/12/30 03:02:47;;;;;;;25.35;12.52;;;;;;;2.34;100.00;97153.09;4929063;29;20047;-92
2021/12/30 03:05:15;;;;;;;27.73;13.73;;;;;;;2.23;100.00;97146.47;4930873;29;20067;-91
2021/12/30 03:07:41;;;;;;;23.77;12.40;;;;;;;2.31;100.00;97160.28;4933235;29;20043;-91
2021/12/30 03:10:14;;;;;;;18.33;10.35;;;;;;;2.24;100.00;97159.63;4924434;29;20041;-92
2021/12/30 03:12:40;;;;;;;19.00;9.77;;;;;;;2.35;100.00;97175.94;4916225;29;20051;-92
2021/12/30 03:15:06;;;;;;;18.58;10.07;;;;;;;2.30;100.00;97153.25;4915299;29;20039;-91
2021/12/30 03:17:31;;;;;;;20.45;11.23;;;;;;;2.37;100.00;97171.44;4923470;29;20035;-90
2021/12/30 03:19:57;;;;;;;17.65;9.40;;;;;;;2.19;100.00;97182.66;4934382;29;20043;-90
2021/12/30 03:22:23;;;;;;;19.05;9.98;;;;;;;2.10;100.00;97172.41;4917012;29;20217;-90
2021/12/30 03:24:49;;;;;;;22.25;10.02;;;;;;;2.22;100.00;97187.81;4936286;28;20456;-91
2021/12/30 03:27:14;;;;;;;20.23;11.05;;;;;;;2.25;100.00;97192.97;4905833;29;20039;-91
2021/12/30 03:29:40;;;;;;;21.83;11.20;;;;;;;2.09;100.00;97192.66;4906831;29;20020;-91
2021/12/30 03:32:06;;;;;;;28.65;13.32;;;;;;;1.95;100.00;97189.63;4917585;29;20035;-91
2021/12/30 03:34:31;;;;;;;24.30;12.07;;;;;;;1.96;100.00;97198.41;4914215;29;20044;-90
2021/12/30 03:36:57;;;;;;;25.98;13.05;;;;;;;1.91;100.00;97197.69;4905522;29;20095;-91
2021/12/30 03:39:22;;;;;;;27.40;13.60;;;;;;;1.89;100.00;97207.44;4928676;29;20038;-91
2021/12/30 03:41:48;;;;;;;23.75;11.82;;;;;;;1.90;100.00;97211.81;4916324;29;20093;-91
2021/12/30 03:44:14;;;;;;;31.88;14.13;;;;;;;1.81;100.00;97194.53;4909853;29;20048;-90
2021/12/30 03:46:39;;;;;;;23.48;12.13;;;;;;;1.94;100.00;97198.44;4928878;29;20420;-90
2021/12/30 03:49:06;;;;;;;28.23;15.02;;;;;;;1.99;100.00;97204.44;4921298;29;20040;-90
2021/12/30 03:51:38;;;;;;;24.35;12.95;;;;;;;2.03;100.00;97207.84;4927983;29;20047;-91
2021/12/30 03:54:04;;;;;;;18.92;10.73;;;;;;;2.06;100.00;97213.84;4925120;29;20063;-92
2021/12/30 03:56:30;;;;;;;15.70;8.38;;;;;;;1.98;100.00;97209.75;4917651;29;20043;-92
2021/12/30 03:58:56;;;;;;;14.98;8.68;;;;;;;2.04;100.00;97225.38;4921628;29;20099;-91
2021/12/30 04:01:23;;;;;;;13.82;7.28;;;;;;;2.11;100.00;97240.97;4926773;29;20038;-90
2021/12/30 04:04:17;;;;;;;16.73;8.95;;;;;;;2.14;100.00;97234.72;4931126;29;20040;-89
2021/12/30 04:06:43;;;;;;;13.73;8.25;;;;;;;2.14;100.00;97234.72;4929092;29;20471;-91
2021/12/30 04:09:09;;;;;;;14.75;8.57;;;;;;;2.13;100.00;97227.69;4913179;29;20015;-90
2021/12/30 04:11:36;;;;;;;15.32;8.85;;;;;;;2.08;100.00;97232.28;4912379;29;20147;-77
2021/12/30 04:14:03;;;;;;;15.20;9.13;;;;;;;2.16;100.00;97256.63;4934430;29;20042;-90
2021/12/30 04:16:29;;;;;;;19.98;10.68;;;;;;;2.11;100.00;97256.78;4931662;29;20058;-90
2021/12/30 04:18:55;;;;;;;19.92;11.02;;;;;;;2.04;100.00;97251.75;4932980;29;20039;-90
2021/12/30 04:21:21;;;;;;;20.08;11.10;;;;;;;2.09;100.00;97265.66;4911518;29;20087;-90
2021/12/30 04:23:47;;;;;;;18.58;9.98;;;;;;;2.01;100.00;97259.75;4924483;29;20516;-90
2021/12/30 04:26:12;;;;;;;19.90;9.68;;;;;;;1.99;100.00;97257.19;4938593;29;20058;-90
2021/12/30 04:28:38;;;;;;;29.92;15.13;;;;;;;1.93;100.00;97262.66;4920531;29;20036;-89
2021/12/30 04:31:04;;;;;;;25.17;13.15;;;;;;;1.93;100.00;97261.81;4943830;29;20045;-91
2021/12/30 04:33:30;;;;;;;22.33;12.38;;;;;;;2.03;100.00;97274.63;4921044;29;20031;-92
2021/12/30 04:35:56;;;;;;;23.42;12.93;;;;;;;2.05;100.00;97282.50;4918725;29;20527;-90
2021/12/30 04:38:23;;;;;;;25.80;14.52;;;;;;;1.94;100.00;97269.66;4943899;29;20035;-90
2021/12/30 04:40:49;;;;;;;11.77;6.45;;;;;;;1.90;100.00;97277.72;4918384;29;20043;-91
2021/12/30 04:43:14;;;;;;;14.00;9.10;;;;;;;1.91;100.00;97282.06;4934201;29;20053;-90
2021/12/30 04:49:20;;;;;;;17.27;8.52;;;;;;;1.88;100.00;97295.34;4953289;29;20066;-92
2021/12/30 04:51:46;;;;;;;14.05;8.30;;;;;;;1.93;100.00;97301.34;4927500;29;20043;-91
2021/12/30 04:54:11;;;;;;;14.90;8.50;;;;;;;1.93;100.00;97314.53;4927570;29;20035;-92
2021/12/30 04:56:49;;;;;;;21.65;11.00;;;;;;;1.84;100.00;97293.75;4917289;29;20424;-91
2021/12/30 04:59:14;;;;;;;15.60;9.25;;;;;;;1.95;100.00;97310.06;4958231;29;20043;-91
2021/12/30 05:01:40;;;;;;;17.65;9.68;;;;;;;1.99;100.00;97312.56;4942241;29;20455;-90
2021/12/30 05:04:06;;;;;;;15.00;9.27;;;;;;;1.92;100.00;97294.34;4943564;29;20190;-91
2021/12/30 05:06:34;;;;;;;14.27;8.43;;;;;;;2.13;100.00;97336.72;4921908;29;20039;-90
2021/12/30 05:09:00;;;;;;;17.13;10.95;;;;;;;1.99;100.00;97316.97;4934308;29;20062;-90
2021/12/30 05:11:25;;;;;;;14.93;9.23;;;;;;;2.00;100.00;97324.00;4926917;29;20122;-90
2021/12/30 05:13:51;;;;;;;15.45;8.43;;;;;;;1.95;100.00;97324.13;4920054;29;20039;-89
2021/12/30 05:16:18;;;;;;;18.70;10.63;;;;;;;1.93;100.00;97322.44;4924836;29;20499;-91
2021/12/30 05:18:44;;;;;;;21.38;11.90;;;;;;;1.96;100.00;97351.38;4925195;29;20039;-92
2021/12/30 05:21:10;;;;;;;20.60;10.88;;;;;;;1.83;100.00;97331.56;4941199;29;20345;-77
2021/12/30 05:23:36;;;;;;;18.73;10.48;;;;;;;1.94;100.00;97346.13;4930715;29;20051;-87
2021/12/30 05:26:02;;;;;;;17.20;10.40;;;;;;;2.00;100.00;97347.72;4931905;29;20047;-90
2021/12/30 05:28:28;;;;;;;18.73;11.02;;;;;;;2.06;100.00;97356.28;4911023;29;20622;-88
2021/12/30 05:30:54;;;;;;;21.73;11.38;;;;;;;2.10;100.00;97370.25;4914186;29;20046;-89
2021/12/30 05:33:19;;;;;;;19.70;10.43;;;;;;;1.95;100.00;97358.41;4924501;28;20048;-90
2021/12/30 05:35:45;;;;;;;21.05;10.85;;;;;;;1.99;100.00;97364.44;4925835;29;20388;-90
2021/12/30 05:38:14;;;;;;;18.77;10.48;;;;;;;1.93;100.00;97375.19;4926326;29;20047;-87
2021/12/30 05:40:39;;;;;;;23.15;11.15;;;;;;;1.79;100.00;97366.81;4941482;29;20035;-90
2021/12/30 05:43:05;;;;;;;18.08;10.15;;;;;;;1.68;100.00;97367.16;4917676;29;20098;-88
2021/12/30 05:45:30;;;;;;;21.27;9.90;;;;;;;1.77;100.00;97376.56;4916188;29;20043;-90
2021/12/30 05:47:56;;;;;;;19.38;10.35;;;;;;;1.86;100.00;97381.56;4918929;29;20047;-89
2021/12/30 05:50:24;;;;;;;23.23;10.70;;;;;;;1.92;100.00;97392.78;4935820;29;20570;-78
2021/12/30 05:52:50;;;;;;;21.40;10.43;;;;;;;1.95;100.00;97383.91;4937502;29;20542;-88
2021/12/30 05:55:19;;;;;;;17.67;9.43;;;;;;;1.99;100.00;97396.97;4928713;29;20044;-89
2021/12/30 05:57:45;;;;;;;16.50;9.40;;;;;;;1.85;100.00;97369.25;4927249;29;20050;-88
2021/12/30 06:00:14;;;;;;;18.40;10.07;;;;;;;2.09;100.00;97410.75;4929438;29;20130;-90
2021/12/30 06:02:39;;;;;;;20.23;9.88;;;;;;;2.12;100.00;97413.28;4929462;29;20040;-88
2021/12/30 06:05:05;;;;;;;15.32;9.18;;;;;;;2.04;100.00;97413.50;4920405;29;20134;-88
2021/12/30 06:07:31;;;;;;;24.52;13.05;;;;;;;1.91;100.00;97398.09;4913443;29;20111;-88
2021/12/30 06:09:57;;;;;;;23.02;12.00;;;;;;;2.01;100.00;97425.91;4910470;29;20459;-89
2021/12/30 06:12:23;;;;;;;18.75;10.45;;;;;;;1.78;100.00;97415.19;4923308;29;20459;-87
2021/12/30 06:14:48;;;;;;;23.13;12.05;;;;;;;1.84;100.00;97433.47;4929440;29;20035;-88
2021/12/30 06:17:15;;;;;;;22.60;9.65;;;;;;;1.83;100.00;97444.91;4920052;29;20415;-89
2021/12/30 06:19:44;;;;;;;23.80;11.65;;;;;;;1.84;100.00;97444.91;4939478;29;20035;-86
2021/12/30 06:22:11;;;;;;;23.58;12.02;;;;;;;1.84;100.00;97451.94;4933505;29;20035;-88
2021/12/30 06:24:37;;;;;;;21.27;11.40;;;;;;;1.85;100.00;97451.00;4912461;29;20043;-88
2021/12/30 06:27:03;;;;;;;25.95;11.52;;;;;;;1.89;100.00;97457.91;4926411;29;20035;-89
2021/12/30 06:29:29;;;;;;;17.20;9.77;;;;;;;1.92;100.00;97463.09;4932421;29;20134;-89
2021/12/30 06:31:55;;;;;;;22.58;13.27;;;;;;;2.01;100.00;97478.66;4920405;29;20063;-89
2021/12/30 06:34:20;;;;;;;31.65;17.23;;;;;;;2.01;100.00;97483.94;4929493;29;20035;-90
2021/12/30 06:36:46;;;;;;;17.52;11.38;;;;;;;2.13;100.00;97487.06;4907654;29;20039;-90
2021/12/30 06:39:11;;;;;;;17.33;9.20;;;;;;;2.12;100.00;97477.44;4923899;29;20051;-89
2021/12/30 06:41:37;;;;;;;18.60;10.75;;;;;;;2.21;100.00;97486.88;4924367;29;20039;-89
2021/12/30 06:44:03;;;;;;;18.52;10.35;;;;;;;2.21;100.00;97494.78;4927431;29;20039;-90
2021/12/30 06:46:28;;;;;;;19.10;10.70;;;;;;;2.17;100.00;97499.28;4933682;29;20043;-89
2021/12/30 06:48:54;;;;;;;17.33;8.20;;;;;;;2.24;100.00;97497.31;4936814;29;20070;-90
2021/12/30 06:51:23;;;;;;;17.90;9.77;;;;;;;2.36;100.00;97512.78;4921548;29;20039;-89
2021/12/30 06:53:49;;;;;;;15.82;9.10;;;;;;;2.30;100.00;97507.69;4908829;29;20482;-89
2021/12/30 06:56:15;;;;;;;19.23;11.13;;;;;;;2.19;100.00;97504.50;4924039;29;20118;-90
2021/12/30 06:58:41;;;;;;;17.10;9.25;;;;;;;2.34;100.00;97525.13;4923976;29;20073;-88
2021/12/30 07:01:07;;;;;;;15.38;9.68;;;;;;;2.37;100.00;97525.03;4923713;29;20047;-87
2021/12/30 07:03:33;;;;;;;21.80;12.00;;;;;;;2.31;100.00;97519.13;4917384;29;20137;-88
2021/12/30 07:05:58;;;;;;;14.85;9.57;;;;;;;2.29;100.00;97524.44;4912954;29;20070;-90
2021/12/30 07:08:24;;;;;;;16.88;9.55;;;;;;;2.33;100.00;97531.34;4919993;29;20460;-91
2021/12/30 07:10:50;;;;;;;21.23;11.73;;;;;;;2.43;100.00;97545.97;4939907;29;20388;-90
2021/12/30 07:13:16;;;;;;;21.50;13.27;;;;;;;2.50;100.00;97550.16;4910517;29;20047;-89
2021/12/30 07:15:42;;;;;;;22.38;12.95;;;;;;;2.39;100.00;97543.50;4920653;29;20039;-89
2021/12/30 07:18:08;;;;;;;19.75;11.55;;;;;;;2.53;100.00;97565.91;4921161;29;20559;-89
2021/12/30 07:20:34;;;;;;;26.85;15.25;;;;;;;2.52;100.00;97566.81;4920356;29;20074;-89
2021/12/30 07:23:00;;;;;;;21.15;12.20;;;;;;;2.62;100.00;97584.13;4928805;29;20063;-88
2021/12/30 07:25:25;;;;;;;20.73;12.50;;;;;;;2.59;100.00;97578.06;4927623;29;20052;-88
2021/12/30 07:27:53;;;;;;;21.90;12.40;;;;;;;2.56;100.00;97583.44;4931044;29;20058;-88
2021/12/30 07:30:20;;;;;;;17.60;9.60;;;;;;;2.63;100.00;97593.78;4940703;29;20038;-89
2021/12/30 07:32:46;;;;;;;15.27;9.25;;;;;;;2.58;100.00;97597.47;4931931;29;20046;-88
2021/12/30 07:35:13;;;;;;;18.50;10.32;;;;;;;2.53;100.00;97589.69;4926553;29;20040;-90
2021/12/30 07:37:39;;;;;;;22.27;13.00;;;;;;;2.45;100.00;97604.00;4927010;29;20074;-89
2021/12/30 07:40:05;;;;;;;15.52;9.65;;;;;;;2.40;100.00;97601.50;4909182;29;20499;-90
2021/12/30 07:42:31;;;;;;;31.02;15.18;;;;;;;2.33;100.00;97586.78;4910179;29;20054;-89
2021/12/30 07:44:56;;;;;;;33.00;18.15;;;;;;;2.40;100.00;97606.78;4921783;29;20043;-89
2021/12/30 07:47:23;;;;;;;27.23;16.02;;;;;;;2.37;100.00;97624.50;4928795;29;20099;-90
2021/12/30 07:49:49;;;;;;;19.48;11.85;;;;;;;2.44;100.00;97626.03;4915053;29;20430;-90
2021/12/30 07:52:15;;;;;;;23.15;13.73;;;;;;;2.50;100.00;97626.72;4932354;29;20039;-91
2021/12/30 07:54:43;;;;;;;26.38;14.88;;;;;;;2.45;100.00;97617.22;4936295;29;20036;-88
2021/12/30 07:57:10;;;;;;;33.08;17.27;;;;;;;2.47;100.00;97621.53;4935362;29;20047;-91
2021/12/30 07:59:35;;;;;;;28.33;15.80;;;;;;;2.53;100.00;97637.19;4938422;29;20031;-91
2021/12/30 08:02:02;;;;;;;23.35;14.10;;;;;;;2.67;100.00;97636.81;4923902;29;20063;-92
2021/12/30 08:04:27;;;;;;;75.25;35.25;;;;;;;2.73;100.00;97636.63;4936791;29;20054;-89
2021/12/30 08:06:53;;;;;;;27.33;16.63;;;;;;;2.67;100.00;97660.56;4937749;29;20415;-89
2021/12/30 08:09:19;;;;;;;26.48;14.48;;;;;;;2.56;100.00;97652.06;4911933;29;20114;-89
2021/12/30 08:11:45;;;;;;;37.78;14.15;;;;;;;2.65;100.00;97663.25;4917839;29;20069;-89
2021/12/30 08:14:10;;;;;;;33.13;11.65;;;;;;;2.69;100.00;97645.53;4939550;29;20589;-90
2021/12/30 08:16:36;;;;;;;13.68;8.43;;;;;;;2.71;100.00;97657.78;4923406;29;20134;-89
2021/12/30 08:19:01;;;;;;;24.52;8.77;;;;;;;2.88;100.00;97674.91;4913922;29;20048;-90
2021/12/30 08:21:27;;;;;;;29.88;10.90;;;;;;;2.81;100.00;97668.06;4932384;29;20183;-91
2021/12/30 08:23:53;;;;;;;15.95;9.13;;;;;;;2.73;100.00;97663.91;4928974;29;20039;-89
2021/12/30 08:26:21;;;;;;;37.75;9.95;;;;;;;3.08;100.00;97693.66;4917751;29;20074;-89
2021/12/30 08:35:21;;;;;;;12.40;7.97;;;;;;;2.85;100.00;97659.16;4885603;29;20109;-90
2021/12/30 08:37:47;;;;;;;15.70;9.27;;;;;;;3.11;100.00;97698.84;4930804;29;20074;-90
2021/12/30 08:40:14;;;;;;;16.55;8.20;;;;;;;3.04;100.00;97692.91;4932187;29;20039;-89
2021/12/30 08:42:40;;;;;;;49.75;21.42;;;;;;;3.00;100.00;97700.97;4912401;29;20035;-90
2021/12/30 08:45:07;;;;;;;43.15;14.60;;;;;;;3.09;100.00;97721.81;4932152;29;20091;-90
2021/12/30 08:47:33;;;;;;;36.30;8.07;;;;;;;3.12;100.00;97717.31;4920974;29;20035;-90
2021/12/30 08:49:59;;;;;;;46.65;9.88;;;;;;;3.20;100.00;97719.72;4933292;29;20074;-89
2021/12/30 08:52:27;;;;;;;62.28;15.27;;;;;;;3.05;100.00;97714.88;4919241;29;20046;-89
2021/12/30 08:54:53;;;;;;;27.23;12.98;;;;;;;2.98;100.00;97726.56;4917385;29;20499;-90
2021/12/30 08:57:20;;;;;;;40.67;13.32;;;;;;;2.98;100.00;97734.50;4918368;29;20035;-90
2021/12/30 08:59:46;;;;;;;95.72;34.80;;;;;;;2.90;100.00;97736.47;4937972;29;20043;-90
2021/12/30 09:02:12;;;;;;;83.03;29.73;;;;;;;2.91;100.00;97723.22;4929153;29;20031;-89
2021/12/30 09:04:42;;;;;;;54.22;24.13;;;;;;;2.72;100.00;97717.59;4932033;29;20144;-89
2021/12/30 09:07:08;;;;;;;53.25;26.00;;;;;;;2.83;100.00;97746.34;4920800;29;20397;-90
2021/12/30 09:09:34;;;;;;;55.95;19.88;;;;;;;2.91;100.00;97741.72;4931679;29;20534;-88
2021/12/30 09:11:59;;;;;;;40.33;15.75;;;;;;;3.00;100.00;97735.31;4917357;29;20031;-90
2021/12/30 09:14:25;;;;;;;15.38;8.02;;;;;;;2.96;100.00;97754.78;4911008;29;20042;-89
2021/12/30 09:16:52;;;;;;;18.73;10.27;;;;;;;3.05;100.00;97755.38;4939773;29;20090;-89
2021/12/30 09:19:18;;;;;;;14.18;8.13;;;;;;;3.04;100.00;97751.03;4920998;29;20118;-90
2021/12/30 09:21:44;;;;;;;7.35;5.38;;;;;;;3.19;100.00;97765.56;4909806;29;20044;-88
2021/12/30 09:24:11;;;;;;;18.83;10.13;;;;;;;3.28;100.00;97775.88;4930191;29;20040;-89
2021/12/30 09:26:38;;;;;;;14.00;8.82;;;;;;;3.29;100.00;97769.69;4913761;29;20197;-86
2021/12/30 09:29:10;;;;;;;21.58;9.77;;;;;;;3.37;100.00;97786.16;4927411;29;20028;-90
2021/12/30 09:31:37;;;;;;;;;;;;;;;3.36;100.00;97780.91;4911616;29;20047;-89
2021/12/30 09:34:02;;;;;;;20.73;10.43;;;;;;;3.23;100.00;97780.44;4938909;28;19934;-90
2021/12/30 09:36:30;;;;;;;5.65;3.95;;;;;;;3.02;100.00;97759.91;4931054;29;20035;-91
2021/12/30 09:38:55;;;;;;;17.38;7.53;;;;;;;3.29;100.00;97769.69;4925649;29;20154;-89
2021/12/30 09:41:21;;;;;;;23.42;12.40;;;;;;;3.39;100.00;97781.69;4932542;29;20496;-90
2021/12/30 09:43:46;;;;;;;22.05;13.77;;;;;;;3.26;100.00;97777.72;4938765;29;20202;-88
2021/12/30 09:46:13;;;;;;;34.38;17.15;;;;;;;3.36;100.00;97771.22;4929351;29;20500;-89
2021/12/30 09:48:38;;;;;;;27.27;16.75;;;;;;;3.33;100.00;97765.16;4928557;29;20492;-88
2021/12/30 09:51:06;;;;;;;27.42;14.00;;;;;;;3.54;100.00;97783.88;4928904;29;20054;-90
2021/12/30 09:53:32;;;;;;;24.20;14.68;;;;;;;3.59;100.00;97768.75;4920568;29;20047;-90
2021/12/30 09:55:59;;;;;;;32.00;18.38;;;;;;;3.54;100.00;97762.72;4921887;29;20043;-89
2021/12/30 09:58:26;;;;;;;23.52;14.27;;;;;;;3.54;100.00;97775.06;4930056;29;20047;-90
2021/12/30 10:00:52;;;;;;;31.13;18.17;;;;;;;3.51;100.00;97781.31;4931108;29;20047;-89
2021/12/30 10:03:18;;;;;;;36.42;21.33;;;;;;;3.47;100.00;97771.78;4917982;29;20046;-89
2021/12/30 10:05:46;;;;;;;49.70;28.40;;;;;;;3.57;100.00;97786.44;4924427;29;20416;-91
2021/12/30 10:08:24;;;;;;;26.80;16.48;;;;;;;3.55;100.00;97790.91;4924081;29;20419;-89
2021/12/30 10:10:56;;;;;;;28.95;15.68;;;;;;;3.45;100.00;97776.22;4933310;29;20047;-90
2021/12/30 10:13:31;;;;;;;22.50;12.75;;;;;;;3.39;100.00;97779.06;4910242;29;20051;-89
2021/12/30 10:16:02;;;;;;;15.45;9.52;;;;;;;3.38;100.00;97779.97;4939412;29;20627;-89
2021/12/30 10:18:50;;;;;;;26.25;14.07;;;;;;;3.48;100.00;97775.25;4933402;29;20039;-90
2021/12/30 10:21:21;;;;;;;23.40;13.52;;;;;;;3.42;100.00;97767.50;4936062;29;20050;-90
2021/12/30 10:23:49;;;;;;;25.20;15.18;;;;;;;3.72;100.00;97796.53;4941971;29;20562;-90
2021/12/30 10:26:15;;;;;;;25.10;15.27;;;;;;;3.74;100.00;97801.78;4925319;29;20058;-89
2021/12/30 10:28:48;;;;;;;32.55;18.90;;;;;;;3.76;100.00;97797.31;4915951;29;20043;-90
2021/12/30 10:31:16;;;;;;;168.63;95.38;;;;;;;3.72;100.00;97777.19;4931795;29;20053;-88
2021/12/30 10:33:47;;;;;;;138.48;74.07;;;;;;;3.78;100.00;97798.97;4911452;29;20063;-88
2021/12/30 10:36:25;;;;;;;25.98;14.52;;;;;;;3.76;100.00;97798.19;4929111;29;20440;-88
2021/12/30 10:38:51;;;;;;;23.40;13.48;;;;;;;3.90;100.00;97795.13;4930004;29;20048;-89
2021/12/30 10:41:22;;;;;;;25.58;14.70;;;;;;;3.70;100.00;97800.13;4941095;29;20109;-89
2021/12/30 10:43:52;;;;;;;26.98;15.63;;;;;;;3.76;100.00;97800.81;4926340;29;20046;-88
2021/12/30 10:46:28;;;;;;;37.70;20.27;;;;;;;3.61;100.00;97752.81;4914551;29;20526;-87
2021/12/30 10:48:59;;;;;;;29.35;16.70;;;;;;;3.77;100.00;97794.63;4922288;29;20062;-87
2021/12/30 10:51:38;;;;;;;30.98;17.30;;;;;;;3.76;100.00;97787.59;4936324;29;20071;-89
2021/12/30 10:54:10;;;;;;;42.20;23.23;;;;;;;3.83;100.00;97797.09;4942395;29;20126;-89
2021/12/30 10:56:38;;;;;;;40.85;22.13;;;;;;;3.59;100.00;97766.09;4942615;29;20046;-89
2021/12/30 10:59:21;;;;;;;49.63;25.15;;;;;;;3.62;100.00;97791.59;4917855;29;20126;-91
2021/12/30 11:01:54;;;;;;;42.53;23.38;;;;;;;3.60;100.00;97788.97;4931485;29;20043;-91
2021/12/30 11:04:20;;;;;;;48.58;26.27;;;;;;;3.64;100.00;97777.41;4920556;29;20039;-89
2021/12/30 11:06:46;;;;;;;54.33;29.02;;;;;;;3.73;100.00;97786.81;4927588;29;20032;-86
2021/12/30 11:09:18;;;;;;;65.75;34.40;;;;;;;3.40;100.00;97758.78;4920914;29;20024;-89
2021/12/30 11:11:48;;;;;;;55.72;27.85;;;;;;;3.21;100.00;97784.88;4928470;29;20044;-88
2021/12/30 11:14:20;;;;;;;58.20;29.48;;;;;;;3.20;100.00;97777.84;4923294;29;20050;-89
2021/12/30 11:17:16;;;;;;;62.40;31.80;;;;;;;3.51;100.00;97798.97;4933983;29;20047;-90
2021/12/30 11:20:06;;;;;;;58.65;29.52;;;;;;;3.49;100.00;97808.72;4926224;29;20089;-88
2021/12/30 11:22:39;;;;;;;59.45;31.75;;;;;;;3.52;100.00;97808.63;4915351;29;20050;-90
2021/12/30 11:25:07;;;;;;;83.20;43.05;;;;;;;3.37;100.00;97809.97;4916114;29;20048;-89
2021/12/30 11:27:34;;;;;;;60.83;32.80;;;;;;;3.09;100.00;97787.88;4932060;29;20031;-89
2021/12/30 11:30:18;;;;;;;68.32;34.85;;;;;;;3.16;100.00;97794.72;4915147;29;20071;-90